Urutai, Brazil
Current Conditions -  °F | °C
As of 2:00 PM on Monday 20 Oct 2014 (Local Time) from SBGO Reporting Station
Few Clouds Few Clouds  
Wind Chill: 91°   Ceiling: Unl
Heat Index: 91°   Visibility: 6mi
Dew Point: 54°   Wind: 12mph
Humidity: 28%   Direction: 120°ESE
Pressure: 29.97"   Gusts: NA
Location:  17.46°S, 48.2°W
Report Text: SBGO 201700Z 12010KT 9999 FEW035 33/12 Q1015
Loading
Personal Weather Stations






























Interactive Weather Map
Tropical Storm Tracking
New forecast layout! Learn more

10-Day Weather Forecast

Advertisements
Track Severe Weather on mobile